Time;durP1;ratioP1;P1;durP2;ratioP2;P2;SDS_P1;SDS_P2;PMS_P1;PMS_P2;Temp;Humidity;BMP_temperature;BMP_pressure;BME280_temperature;BME280_humidity;BME280_pressure;Samples;Min_cycle;Max_cycle;Signal;HPM_P1;HPM_P2
2021/11/17 02:26:14;;;;;;;15.52;9.85;;;8.00;99.90;;;;;;5070071;28;20044;-71
2021/11/17 02:29:28;;;;;;;15.90;9.50;;;7.90;99.90;;;;;;5069952;28;20040;-71
2021/11/17 02:32:54;;;;;;;20.20;10.95;;;7.90;99.90;;;;;;5070382;28;20051;-71
2021/11/17 02:36:01;;;;;;;16.33;10.52;;;7.80;99.90;;;;;;5070360;28;20391;-71
2021/11/17 02:39:33;;;;;;;18.00;10.90;;;7.80;99.90;;;;;;5069923;28;20071;-71
2021/11/17 02:42:55;;;;;;;17.40;10.65;;;7.70;99.90;;;;;;5070111;28;20341;-71
2021/11/17 02:46:05;;;;;;;18.95;12.13;;;7.70;99.90;;;;;;5069741;28;20039;-71
2021/11/17 02:49:30;;;;;;;20.58;11.48;;;7.70;99.90;;;;;;5069581;28;20387;-71
2021/11/17 02:52:47;;;;;;;23.25;13.07;;;7.70;99.90;;;;;;5070136;28;20039;-71
2021/11/17 02:55:57;;;;;;;20.02;11.70;;;7.70;99.90;;;;;;5069302;28;20261;-71
2021/11/17 02:59:17;;;;;;;23.05;14.80;;;7.70;99.90;;;;;;5069513;28;20039;-71
2021/11/17 03:03:06;;;;;;;24.55;14.80;;;7.70;99.90;;;;;;5070088;28;20469;-71
2021/11/17 03:06:25;;;;;;;15.55;10.95;;;7.70;99.90;;;;;;5069728;28;20059;-71
2021/11/17 03:09:39;;;;;;;12.70;8.77;;;7.80;99.90;;;;;;5069706;28;20032;-71
2021/11/17 03:13:00;;;;;;;17.00;8.75;;;7.80;99.90;;;;;;5073643;28;20047;-71
2021/11/17 03:16:06;;;;;;;16.17;9.65;;;7.80;99.90;;;;;;5073836;28;20043;-71
2021/11/17 03:19:13;;;;;;;17.92;9.70;;;7.80;99.90;;;;;;5073335;28;20506;-71
2021/11/17 03:23:03;;;;;;;16.90;9.52;;;7.80;99.90;;;;;;5073757;28;20055;-71
2021/11/17 03:26:38;;;;;;;17.30;11.10;;;7.70;99.90;;;;;;5050576;28;20439;-71
2021/11/17 03:29:47;;;;;;;16.45;10.40;;;7.70;99.90;;;;;;5056034;28;20039;-71
2021/11/17 03:33:18;;;;;;;19.08;11.65;;;7.70;99.90;;;;;;5073388;28;20640;-71
2021/11/17 03:36:38;;;;;;;17.00;10.73;;;7.60;99.90;;;;;;5072993;28;20501;-71
2021/11/17 03:39:43;;;;;;;20.33;12.63;;;7.60;99.90;;;;;;5072778;28;20043;-71
2021/11/17 03:42:58;;;;;;;19.75;11.68;;;7.60;99.90;;;;;;5060464;28;20047;-71
2021/11/17 03:46:02;;;;;;;21.52;13.10;;;7.60;99.90;;;;;;5072963;28;20395;-71
2021/11/17 03:49:29;;;;;;;21.00;12.85;;;7.60;99.90;;;;;;5072539;28;20494;-71
2021/11/17 03:52:44;;;;;;;25.42;15.02;;;7.60;99.90;;;;;;5073220;28;20055;-71
2021/11/17 03:55:58;;;;;;;26.42;15.18;;;7.60;99.90;;;;;;5072110;28;20043;-71
2021/11/17 03:59:40;;;;;;;30.42;15.93;;;7.70;99.90;;;;;;5072744;28;20051;-71
2021/11/17 04:03:05;;;;;;;28.07;16.70;;;7.70;99.90;;;;;;5073277;28;20038;-71
2021/11/17 04:06:35;;;;;;;31.33;18.13;;;7.80;99.90;;;;;;5072777;28;20043;-71
2021/11/17 04:10:07;;;;;;;27.35;16.40;;;7.80;99.90;;;;;;5072761;28;20384;-71
2021/11/17 04:13:12;;;;;;;27.38;16.80;;;7.90;99.90;;;;;;5073108;28;20051;-71
2021/11/17 04:16:28;;;;;;;29.67;18.80;;;7.80;99.90;;;;;;5073012;28;20044;-71
2021/11/17 04:19:59;;;;;;;26.88;17.02;;;7.80;99.90;;;;;;5071962;28;20399;-71
2021/11/17 04:23:22;;;;;;;30.02;17.35;;;7.70;99.90;;;;;;5072673;28;20075;-71
2021/11/17 04:26:53;;;;;;;26.02;15.32;;;7.70;99.90;;;;;;5072796;28;20051;-71
2021/11/17 04:29:57;;;;;;;23.70;14.15;;;7.60;99.90;;;;;;5072116;28;20031;-71
2021/11/17 04:33:39;;;;;;;28.27;15.60;;;7.60;99.90;;;;;;5072886;28;20048;-71
2021/11/17 04:37:15;;;;;;;21.27;10.18;;;7.60;99.90;;;;;;5072486;28;20403;-71
2021/11/17 04:40:27;;;;;;;14.52;9.90;;;7.50;99.90;;;;;;5071994;28;20055;-71
2021/11/17 04:44:13;;;;;;;15.65;9.57;;;7.50;99.90;;;;;;5072262;28;20040;-71
2021/11/17 04:47:21;;;;;;;24.65;15.95;;;7.50;99.90;;;;;;5071728;28;20067;-71
2021/11/17 04:50:36;;;;;;;28.77;14.80;;;7.50;99.90;;;;;;5071799;28;20043;-71
2021/11/17 04:53:43;;;;;;;22.15;13.60;;;7.50;99.90;;;;;;5072034;28;20051;-71
2021/11/17 04:56:59;;;;;;;24.05;13.98;;;7.50;99.90;;;;;;5072011;28;20486;-71
2021/11/17 05:00:08;;;;;;;27.05;13.32;;;7.40;99.90;;;;;;5071398;28;20063;-71
2021/11/17 05:03:40;;;;;;;29.77;15.05;;;7.30;99.90;;;;;;5071957;28;20036;-71
2021/11/17 05:07:12;;;;;;;24.48;13.27;;;7.30;99.90;;;;;;5071647;28;20052;-71
2021/11/17 05:10:37;;;;;;;32.42;12.77;;;7.20;99.90;;;;;;5071380;28;20051;-71
2021/11/17 05:14:15;;;;;;;1558.93;168.45;;;7.30;99.90;;;;;;5071726;28;20407;-71
2021/11/17 05:17:18;;;;;;;622.30;62.35;;;7.30;99.90;;;;;;5070935;28;20033;-71
2021/11/17 05:20:42;;;;;;;26.77;13.73;;;7.40;99.90;;;;;;5070941;28;20422;-71
2021/11/17 05:24:12;;;;;;;25.17;14.27;;;7.40;99.90;;;;;;5071332;28;20413;-71
2021/11/17 05:27:25;;;;;;;21.80;13.82;;;7.40;99.90;;;;;;5070891;28;20055;-71
2021/11/17 05:30:43;;;;;;;27.02;15.85;;;7.30;99.90;;;;;;5070674;28;20042;-71
2021/11/17 05:34:10;;;;;;;29.35;15.48;;;7.30;99.90;;;;;;5070488;28;20059;-71
2021/11/17 05:37:35;;;;;;;33.78;15.63;;;7.30;99.90;;;;;;5071077;28;20506;-71
2021/11/17 05:40:45;;;;;;;26.88;14.98;;;7.20;99.90;;;;;;5071124;28;20052;-71
2021/11/17 05:44:34;;;;;;;33.97;16.13;;;7.30;99.90;;;;;;5070814;28;20047;-71
2021/11/17 05:48:13;;;;;;;28.27;14.38;;;7.50;99.90;;;;;;5070298;28;20047;-71
2021/11/17 05:51:17;;;;;;;24.60;14.57;;;7.60;99.90;;;;;;5070804;28;20044;-70
2021/11/17 05:54:59;;;;;;;25.15;13.90;;;7.80;99.90;;;;;;5071018;28;20035;-71
2021/11/17 05:58:05;;;;;;;26.80;15.75;;;7.80;99.90;;;;;;5070210;28;20039;-71
2021/11/17 06:01:21;;;;;;;24.83;14.20;;;7.70;99.90;;;;;;5070176;28;20043;-71
2021/11/17 06:04:25;;;;;;;24.63;14.95;;;7.70;99.90;;;;;;5070863;28;20044;-71
2021/11/17 06:07:29;;;;;;;45.08;13.98;;;7.60;99.90;;;;;;5070986;28;20047;-71
2021/11/17 06:10:37;;;;;;;115.20;17.38;;;7.40;99.90;;;;;;5070531;28;20043;-71
2021/11/17 06:13:41;;;;;;;54.50;11.23;;;7.20;99.90;;;;;;5070212;28;20383;-71
2021/11/17 06:16:51;;;;;;;87.55;15.68;;;7.00;99.90;;;;;;5070936;28;20051;-71
2021/11/17 06:19:57;;;;;;;25.60;13.25;;;6.90;99.90;;;;;;5070726;28;20047;-71
2021/11/17 06:23:06;;;;;;;20.00;10.95;;;6.90;99.90;;;;;;5070435;28;20058;-71
2021/11/17 06:26:13;;;;;;;22.23;10.10;;;7.00;99.90;;;;;;5070252;28;20039;-70
2021/11/17 06:29:28;;;;;;;17.63;10.00;;;7.10;99.90;;;;;;5069909;28;20051;-70
2021/11/17 06:32:34;;;;;;;18.73;11.57;;;7.10;99.90;;;;;;5070380;28;20048;-71
2021/11/17 06:35:40;;;;;;;24.88;12.27;;;7.10;99.90;;;;;;5070268;28;20044;-71
2021/11/17 06:38:45;;;;;;;21.40;12.15;;;7.20;99.90;;;;;;5070100;28;20052;-71
2021/11/17 06:41:50;;;;;;;22.67;13.02;;;7.40;99.90;;;;;;5070374;28;20046;-71
2021/11/17 06:44:55;;;;;;;25.55;13.30;;;7.40;99.90;;;;;;5070045;28;20043;-71
2021/11/17 06:48:00;;;;;;;23.25;12.38;;;7.60;99.90;;;;;;5070391;28;20513;-71
2021/11/17 06:51:05;;;;;;;21.08;12.63;;;7.80;99.90;;;;;;5070286;28;20039;-71
2021/11/17 06:54:09;;;;;;;20.73;11.85;;;7.90;99.90;;;;;;5053522;28;20371;-71
2021/11/17 06:57:13;;;;;;;18.98;12.13;;;8.10;99.90;;;;;;5050892;28;20052;-71
2021/11/17 07:00:21;;;;;;;24.70;14.38;;;8.20;99.90;;;;;;5053879;28;20384;-71
2021/11/17 07:03:28;;;;;;;25.35;14.32;;;8.40;99.90;;;;;;5063649;28;20481;-71
2021/11/17 07:06:33;;;;;;;18.63;10.55;;;8.50;99.90;;;;;;5062971;28;20052;-71
2021/11/17 07:09:37;;;;;;;17.63;10.30;;;8.70;99.90;;;;;;5054352;28;20052;-71
2021/11/17 07:12:42;;;;;;;22.48;11.77;;;8.80;99.90;;;;;;5057735;28;20158;-71
2021/11/17 07:15:46;;;;;;;25.95;16.52;;;8.90;99.90;;;;;;5057842;28;20048;-71
2021/11/17 07:18:50;;;;;;;21.02;12.88;;;9.10;99.90;;;;;;5057247;28;20044;-71
2021/11/17 07:21:57;;;;;;;21.50;14.00;;;9.40;99.90;;;;;;5064574;28;20118;-71
2021/11/17 07:25:01;;;;;;;20.95;12.43;;;9.80;99.90;;;;;;5062887;28;20622;-71
2021/11/17 07:28:06;;;;;;;19.92;12.48;;;10.00;99.90;;;;;;5060441;28;20067;-71
2021/11/17 07:31:09;;;;;;;16.75;10.52;;;10.40;99.90;;;;;;5060499;28;20039;-71
2021/11/17 07:34:14;;;;;;;17.02;11.07;;;10.60;99.90;;;;;;5056108;28;20052;-72
2021/11/17 07:37:19;;;;;;;15.90;10.13;;;11.00;99.90;;;;;;5057077;28;20048;-71
2021/11/17 07:40:24;;;;;;;14.77;10.38;;;11.60;99.90;;;;;;5053927;28;20040;-71
2021/11/17 07:43:28;;;;;;;19.52;13.10;;;12.20;99.90;;;;;;5059075;28;20049;-71
2021/11/17 07:46:32;;;;;;;14.68;11.23;;;12.80;99.90;;;;;;5064271;28;20099;-71
2021/11/17 07:49:36;;;;;;;13.45;8.35;;;13.60;99.90;;;;;;5063977;28;20056;-72
2021/11/17 07:52:40;;;;;;;12.23;7.32;;;14.30;99.90;;;;;;5061857;28;20043;-72
2021/11/17 07:55:47;;;;;;;10.35;7.22;;;15.20;99.90;;;;;;5057140;28;20048;-72
2021/11/17 07:58:51;;;;;;;9.20;6.28;;;16.10;99.90;;;;;;5064865;28;20401;-72
2021/11/17 08:02:07;;;;;;;10.18;6.07;;;17.00;99.90;;;;;;5062268;28;20391;-71
2021/11/17 08:05:12;;;;;;;7.65;5.85;;;18.30;99.90;;;;;;5064594;28;20044;-72
2021/11/17 08:08:19;;;;;;;6.93;5.85;;;19.50;99.90;;;;;;5060180;28;20048;-72
2021/11/17 08:11:24;;;;;;;10.90;4.85;;;20.40;99.90;;;;;;5057720;28;20044;-72
2021/11/17 08:14:28;;;;;;;98.57;5.78;;;20.70;99.90;;;;;;5057939;28;20044;-72
2021/11/17 08:17:33;;;;;;;242.60;8.95;;;18.80;99.90;;;;;;5063785;28;20777;-72
2021/11/17 08:20:39;;;;;;;237.88;9.00;;;16.50;99.90;;;;;;5058948;28;20048;-72
2021/11/17 08:23:43;;;;;;;39.88;3.45;;;14.40;99.90;;;;;;5059597;28;20515;-72
2021/11/17 08:26:47;;;;;;;83.25;4.55;;;14.40;99.90;;;;;;5056951;28;20056;-71
2021/11/17 08:29:53;;;;;;;22.85;3.47;;;15.00;99.90;;;;;;5064649;28;20047;-72
2021/11/17 08:32:58;;;;;;;2.95;2.65;;;15.80;99.90;;;;;;5064423;28;20057;-72
2021/11/17 08:36:02;;;;;;;15.27;4.85;;;17.00;99.90;;;;;;5062065;28;20036;-72
2021/11/17 08:39:08;;;;;;;79.45;5.82;;;18.20;99.90;;;;;;5055101;28;20529;-72
2021/11/17 08:42:13;;;;;;;196.30;9.15;;;16.40;99.90;;;;;;5061323;28;20059;-72
2021/11/17 08:45:17;;;;;;;116.28;8.07;;;14.20;99.90;;;;;;5056885;28;20051;-72
2021/11/17 08:48:26;;;;;;;34.03;6.78;;;14.20;99.90;;;;;;5059874;28;20055;-72
2021/11/17 08:51:30;;;;;;;20.95;7.43;;;15.20;99.90;;;;;;5063423;28;20040;-72
2021/11/17 08:54:36;;;;;;;14.40;8.40;;;16.10;99.90;;;;;;5063680;28;20418;-72
2021/11/17 08:57:41;;;;;;;17.80;5.63;;;16.80;99.90;;;;;;5062443;28;20040;-72
2021/11/17 09:00:46;;;;;;;19.55;6.20;;;17.60;99.90;;;;;;5061691;28;20052;-72
2021/11/17 09:03:52;;;;;;;9.25;5.80;;;18.70;99.90;;;;;;5064858;28;20046;-72
2021/11/17 09:06:57;;;;;;;9.15;7.07;;;17.40;99.90;;;;;;5060725;28;20048;-72
2021/11/17 09:10:01;;;;;;;13.40;6.63;;;16.50;99.90;;;;;;5057856;28;20495;-72
2021/11/17 09:13:06;;;;;;;13.63;7.40;;;16.90;99.90;;;;;;5065406;28;20225;-72
2021/11/17 09:16:11;;;;;;;11.35;7.90;;;18.10;99.90;;;;;;5057706;28;20040;-72
2021/11/17 09:19:16;;;;;;;9.95;6.90;;;19.20;99.90;;;;;;5058966;28;20043;-72
2021/11/17 09:22:21;;;;;;;7.45;5.97;;;20.40;99.90;;;;;;5063915;28;20045;-72
2021/11/17 09:25:27;;;;;;;9.20;6.50;;;21.90;99.90;;;;;;5052246;28;20110;-72
2021/11/17 09:28:33;;;;;;;7.80;6.53;;;23.20;99.90;;;;;;5057174;28;20043;-72
2021/11/17 09:31:40;;;;;;;6.13;4.93;;;24.50;99.50;;;;;;5059353;28;20047;-72
2021/11/17 09:34:44;;;;;;;6.47;4.18;;;25.40;97.10;;;;;;5059463;28;20032;-72
2021/11/17 09:37:50;;;;;;;8.55;4.85;;;26.10;95.20;;;;;;5061176;28;20490;-72
2021/11/17 09:41:05;;;;;;;11.13;5.75;;;24.30;95.80;;;;;;5060713;28;20113;-72
2021/11/17 09:44:18;;;;;;;5.95;5.28;;;22.10;98.30;;;;;;5064770;28;20052;-72
2021/11/17 09:47:24;;;;;;;7.13;5.10;;;23.50;99.10;;;;;;5059789;28;20062;-72
2021/11/17 09:50:40;;;;;;;5.97;4.78;;;21.70;99.60;;;;;;5061834;28;20051;-73
2021/11/17 09:53:53;;;;;;;9.52;5.82;;;22.50;99.70;;;;;;5061133;28;20044;-72
2021/11/17 09:57:20;;;;;;;7.18;4.72;;;23.10;99.30;;;;;;5059481;28;20043;-73
2021/11/17 10:00:34;;;;;;;6.50;4.80;;;21.60;99.90;;;;;;5060418;28;20514;-73
2021/11/17 10:03:45;;;;;;;6.43;4.03;;;23.70;99.00;;;;;;5058790;28;20040;-73
2021/11/17 10:14:03;;;;;;;7.90;4.85;;;22.30;98.50;;;;;;5058961;28;20048;-73
2021/11/17 10:17:47;;;;;;;6.97;5.97;;;19.30;99.90;;;;;;5059081;28;20051;-72
2021/11/17 10:20:56;;;;;;;7.38;6.30;;;20.10;99.90;;;;;;5063390;28;20368;-72
2021/11/17 10:24:21;;;;;;;6.60;5.78;;;19.50;99.90;;;;;;5060711;28;20055;-73
2021/11/17 10:27:28;;;;;;;8.10;5.05;;;21.30;99.90;;;;;;5062346;28;20043;-73
2021/11/17 10:30:37;;;;;;;5.82;3.58;;;24.60;98.00;;;;;;5036613;28;20043;-73
2021/11/17 10:34:06;;;;;;;6.40;4.57;;;23.70;97.80;;;;;;5061792;28;20491;-73
2021/11/17 10:37:28;;;;;;;5.47;3.60;;;24.30;96.70;;;;;;5062269;28;20494;-73
2021/11/17 10:40:41;;;;;;;5.82;3.45;;;26.40;94.90;;;;;;5053506;28;20111;-73
2021/11/17 10:44:03;;;;;;;6.22;4.35;;;28.50;92.40;;;;;;5064696;28;20036;-74
2021/11/17 10:47:28;;;;;;;4.10;3.30;;;28.70;91.50;;;;;;5060516;28;20047;-73
2021/11/17 10:50:37;;;;;;;5.22;3.20;;;30.00;90.80;;;;;;5057071;28;20380;-73
2021/11/17 10:53:47;;;;;;;4.72;2.95;;;30.00;87.60;;;;;;5062856;28;20040;-73
2021/11/17 10:57:12;;;;;;;3.10;2.80;;;30.90;88.40;;;;;;5062658;28;20051;-73
2021/11/17 11:00:24;;;;;;;2.92;2.63;;;31.60;85.70;;;;;;5056456;28;20386;-73
2021/11/17 11:03:34;;;;;;;3.75;2.95;;;29.50;86.30;;;;;;5061815;28;20036;-73
2021/11/17 11:06:47;;;;;;;5.32;3.08;;;26.80;90.10;;;;;;5050598;28;20044;-73
2021/11/17 11:10:04;;;;;;;3.60;3.22;;;27.40;90.70;;;;;;5062323;28;20047;-73
2021/11/17 11:13:12;;;;;;;4.75;4.18;;;28.30;89.70;;;;;;5059453;28;20040;-73
2021/11/17 11:16:21;;;;;;;4.32;3.05;;;27.60;89.40;;;;;;5056634;28;20044;-73
2021/11/17 11:19:27;;;;;;;6.45;4.10;;;29.40;87.70;;;;;;5059644;28;20052;-73
2021/11/17 11:22:32;;;;;;;4.00;3.60;;;28.40;85.60;;;;;;5063718;28;20037;-73
2021/11/17 11:25:47;;;;;;;3.85;3.38;;;29.40;87.10;;;;;;5060773;28;20047;-73
2021/11/17 11:29:18;;;;;;;4.18;3.75;;;28.00;88.10;;;;;;5058153;28;20048;-73
2021/11/17 11:32:25;;;;;;;6.60;3.45;;;27.10;89.90;;;;;;5058883;28;20051;-73
2021/11/17 11:35:30;;;;;;;5.43;3.78;;;28.20;90.60;;;;;;5062684;28;20411;-73
2021/11/17 11:38:37;;;;;;;5.85;4.75;;;28.90;90.20;;;;;;5060913;28;20040;-73
2021/11/17 11:42:04;;;;;;;6.55;4.47;;;26.40;91.10;;;;;;5065702;28;20043;-73
2021/11/17 11:45:08;;;;;;;7.85;4.85;;;27.90;90.30;;;;;;5058273;28;20115;-73
2021/11/17 11:48:33;;;;;;;5.57;4.93;;;27.10;91.00;;;;;;5061130;28;20055;-73
2021/11/17 11:51:50;;;;;;;7.32;5.57;;;27.50;90.60;;;;;;5064554;28;20055;-73
2021/11/17 11:54:54;;;;;;;6.97;5.20;;;26.00;91.50;;;;;;5062693;28;20059;-73
2021/11/17 11:58:20;;;;;;;5.20;4.60;;;27.50;91.50;;;;;;5061916;28;20048;-73
2021/11/17 12:01:26;;;;;;;9.43;4.65;;;27.50;90.80;;;;;;5058190;28;20486;-73
2021/11/17 12:04:31;;;;;;;6.63;4.55;;;28.70;90.70;;;;;;5062417;28;20037;-73
2021/11/17 12:07:46;;;;;;;7.43;4.20;;;29.90;89.00;;;;;;5055561;28;20055;-73
2021/11/17 12:11:02;;;;;;;8.23;3.90;;;31.70;85.90;;;;;;5066321;28;20042;-73
2021/11/17 12:14:10;;;;;;;5.88;3.30;;;31.50;84.00;;;;;;5068584;28;20040;-73
2021/11/17 12:17:20;;;;;;;5.05;3.10;;;29.50;85.80;;;;;;5066215;28;20044;-73
2021/11/17 12:20:33;;;;;;;4.85;3.47;;;30.50;86.10;;;;;;5060460;28;20055;-73
2021/11/17 12:23:42;;;;;;;7.10;3.97;;;31.30;84.90;;;;;;5065451;28;20499;-73
2021/11/17 12:27:04;;;;;;;4.87;3.63;;;29.40;84.90;;;;;;5055986;28;20044;-73
2021/11/17 12:30:19;;;;;;;6.95;4.63;;;25.40;89.10;;;;;;5063379;28;20044;-72
2021/11/17 12:33:48;;;;;;;4.68;3.60;;;24.10;92.10;;;;;;5061259;28;20043;-73
2021/11/17 12:36:57;;;;;;;5.40;3.03;;;24.40;91.70;;;;;;5072349;28;20044;-73
2021/11/17 12:40:12;;;;;;;3.67;3.20;;;25.30;92.10;;;;;;5064239;28;20391;-73
2021/11/17 12:43:36;;;;;;;4.30;3.17;;;25.80;90.90;;;;;;5065828;28;20391;-73
2021/11/17 12:46:58;;;;;;;4.35;2.75;;;26.10;90.60;;;;;;5066374;28;20063;-73
2021/11/17 12:50:10;;;;;;;5.25;3.95;;;25.90;90.30;;;;;;5066419;28;20044;-73
2021/11/17 12:53:22;;;;;;;6.50;3.30;;;24.50;91.70;;;;;;5066406;28;20371;-73
2021/11/17 12:56:44;;;;;;;4.50;3.90;;;23.20;93.90;;;;;;5061734;28;20043;-72
2021/11/17 13:00:09;;;;;;;10.30;4.90;;;21.40;96.70;;;;;;5065002;28;20036;-72
2021/11/17 13:03:34;;;;;;;6.00;4.80;;;20.40;97.90;;;;;;5060846;28;20052;-72
2021/11/17 13:06:44;;;;;;;8.35;5.75;;;19.80;99.90;;;;;;5064970;28;20387;-72
2021/11/17 13:09:48;;;;;;;7.95;5.97;;;20.80;99.20;;;;;;5067450;28;20060;-72
2021/11/17 13:13:19;;;;;;;6.13;4.85;;;22.30;97.60;;;;;;5066553;28;20040;-72
2021/11/17 13:16:37;;;;;;;6.45;5.35;;;22.70;97.80;;;;;;5067268;28;20048;-72
2021/11/17 13:19:51;;;;;;;6.20;4.70;;;23.40;95.50;;;;;;5062031;28;20376;-72
2021/11/17 13:23:22;;;;;;;5.47;4.10;;;23.60;94.40;;;;;;5066970;28;20050;-72
2021/11/17 13:26:45;;;;;;;6.68;4.18;;;24.50;94.00;;;;;;5063038;28;20051;-73
2021/11/17 13:29:52;;;;;;;5.47;3.90;;;25.80;93.50;;;;;;5058154;28;20506;-73
2021/11/17 13:32:57;;;;;;;7.40;4.00;;;27.40;91.70;;;;;;5061197;28;20411;-73
2021/11/17 13:36:12;;;;;;;4.85;3.70;;;28.40;90.50;;;;;;5061297;28;20609;-73
2021/11/17 13:39:22;;;;;;;5.20;3.42;;;29.10;90.90;;;;;;5053161;28;20056;-73
2021/11/17 13:42:28;;;;;;;;;;;29.50;90.10;;;;;;5060958;28;20040;-73
2021/11/17 13:45:32;;;;;;;7.93;3.60;;;29.80;89.20;;;;;;5062664;28;19909;-73
2021/11/17 13:48:39;;;;;;;4.82;3.30;;;30.40;87.70;;;;;;5057146;28;20399;-73
2021/11/17 13:51:43;;;;;;;8.07;3.50;;;30.20;87.70;;;;;;5064902;28;20395;-73
2021/11/17 13:54:47;;;;;;;4.53;2.95;;;30.00;88.00;;;;;;5060323;28;20487;-73
2021/11/17 13:57:53;;;;;;;6.65;3.00;;;29.80;88.00;;;;;;5056114;28;20498;-73
2021/11/17 14:00:56;;;;;;;6.70;2.85;;;30.10;87.90;;;;;;5059210;28;20532;-73
2021/11/17 14:04:01;;;;;;;3.70;2.90;;;30.30;88.40;;;;;;5062008;28;20124;-73
2021/11/17 14:07:06;;;;;;;4.82;3.25;;;30.30;87.40;;;;;;5068949;28;20047;-73
2021/11/17 14:10:11;;;;;;;7.60;3.15;;;29.40;86.00;;;;;;5062211;28;20039;-73
2021/11/17 14:13:15;;;;;;;3.92;2.83;;;28.40;89.40;;;;;;5058976;28;20043;-72
2021/11/17 14:16:19;;;;;;;4.53;2.75;;;26.70;90.50;;;;;;5060210;28;20419;-73
2021/11/17 14:19:24;;;;;;;5.75;3.10;;;24.60;91.60;;;;;;5056146;28;20043;-72
2021/11/17 14:22:28;;;;;;;3.60;2.97;;;23.50;93.50;;;;;;5063479;28;20039;-72
2021/11/17 14:25:33;;;;;;;4.28;3.30;;;22.50;95.20;;;;;;5055404;28;20036;-73
2021/11/17 14:28:41;;;;;;;4.10;3.00;;;22.30;96.00;;;;;;5057977;28;20044;-73
2021/11/17 14:31:50;;;;;;;7.15;2.70;;;23.30;95.70;;;;;;5061551;28;20055;-73
2021/11/17 14:34:53;;;;;;;5.40;2.55;;;23.80;95.00;;;;;;5058604;28;20395;-73
2021/11/17 14:38:00;;;;;;;4.35;2.85;;;24.10;93.70;;;;;;5067320;28;20518;-73
2021/11/17 14:41:04;;;;;;;3.38;2.65;;;24.40;93.70;;;;;;5061295;28;20048;-73
2021/11/17 14:44:09;;;;;;;4.15;2.60;;;24.40;93.30;;;;;;5063776;28;20044;-73
2021/11/17 14:47:15;;;;;;;2.88;2.20;;;24.60;93.40;;;;;;5058152;28;20056;-73
2021/11/17 14:50:22;;;;;;;4.50;2.67;;;24.70;93.70;;;;;;5063425;28;20427;-73
2021/11/17 14:53:26;;;;;;;6.95;2.53;;;24.60;94.00;;;;;;5064343;28;20044;-73
2021/11/17 14:56:30;;;;;;;3.22;2.50;;;24.50;94.20;;;;;;5056303;28;20416;-73
2021/11/17 14:59:36;;;;;;;4.18;2.63;;;24.20;93.90;;;;;;5055304;28;20055;-73
2021/11/17 15:02:41;;;;;;;3.25;2.65;;;23.90;94.40;;;;;;5058229;28;20044;-73
2021/11/17 15:05:46;;;;;;;6.70;2.63;;;23.50;94.60;;;;;;5072123;28;20048;-73
2021/11/17 15:08:51;;;;;;;5.05;2.67;;;23.10;94.90;;;;;;5061231;28;20048;-72
2021/11/17 15:12:00;;;;;;;3.05;2.67;;;22.80;96.00;;;;;;5068648;28;20036;-73
2021/11/17 15:15:09;;;;;;;4.78;2.70;;;22.50;96.70;;;;;;5065131;28;20037;-72
2021/11/17 15:18:21;;;;;;;4.82;3.13;;;22.30;97.30;;;;;;5065688;28;20044;-73
2021/11/17 15:21:25;;;;;;;5.43;2.97;;;21.90;97.20;;;;;;5068463;28;20056;-72
2021/11/17 15:24:31;;;;;;;5.45;3.60;;;21.40;98.10;;;;;;5064595;28;20446;-72
2021/11/17 15:27:41;;;;;;;6.13;4.10;;;20.70;99.10;;;;;;5068637;28;20501;-72
2021/11/17 15:30:51;;;;;;;7.55;3.60;;;19.90;99.90;;;;;;5055835;28;20044;-72
2021/11/17 15:33:55;;;;;;;5.10;3.63;;;19.30;99.90;;;;;;5069125;28;20056;-72
2021/11/17 15:36:59;;;;;;;8.93;4.05;;;18.60;99.90;;;;;;5068190;28;20051;-72
2021/11/17 15:40:09;;;;;;;5.35;4.28;;;18.00;99.90;;;;;;5069034;28;20036;-72
2021/11/17 15:43:13;;;;;;;7.30;4.30;;;17.40;99.90;;;;;;5067740;28;20036;-72
2021/11/17 15:46:19;;;;;;;9.88;5.60;;;16.80;99.90;;;;;;5066365;28;20051;-72
2021/11/17 15:49:24;;;;;;;7.32;4.40;;;16.30;99.90;;;;;;5066869;28;20044;-72
2021/11/17 15:52:28;;;;;;;8.48;4.40;;;15.80;99.90;;;;;;5066287;28;20047;-72
2021/11/17 15:55:32;;;;;;;9.88;5.07;;;15.40;99.90;;;;;;5058226;28;20396;-72
2021/11/17 15:58:36;;;;;;;20.95;15.15;;;15.00;99.90;;;;;;5060970;28;20056;-72
2021/11/17 16:01:41;;;;;;;13.55;9.38;;;14.80;99.90;;;;;;5061246;28;20087;-72
2021/11/17 16:04:45;;;;;;;32.35;25.98;;;14.40;99.90;;;;;;5054852;28;20032;-72
2021/11/17 16:07:50;;;;;;;18.10;12.88;;;14.10;99.90;;;;;;5061635;28;20044;-72
2021/11/17 16:10:54;;;;;;;17.40;9.07;;;13.80;99.90;;;;;;5069882;28;20330;-72
2021/11/17 16:13:58;;;;;;;17.77;9.27;;;13.60;99.90;;;;;;5065954;28;20051;-72
2021/11/17 16:17:03;;;;;;;39.00;19.77;;;13.40;99.90;;;;;;5071005;28;20051;-72
2021/11/17 16:20:11;;;;;;;18.75;11.50;;;13.30;99.90;;;;;;5060543;28;20056;-72
2021/11/17 16:26:26;;;;;;;20.98;11.60;;;13.30;99.90;;;;;;5065382;28;20035;-72
2021/11/17 16:29:30;;;;;;;28.17;16.02;;;13.20;99.90;;;;;;5061091;28;20107;-72
2021/11/17 16:32:34;;;;;;;24.52;16.27;;;13.20;99.90;;;;;;5061812;28;20067;-72
2021/11/17 16:35:39;;;;;;;20.20;12.82;;;13.20;99.90;;;;;;5064440;28;20051;-72
2021/11/17 16:38:45;;;;;;;13.13;10.07;;;13.20;99.90;;;;;;5060616;28;20048;-72
2021/11/17 16:41:51;;;;;;;16.60;10.25;;;13.10;99.90;;;;;;5066213;28;20059;-72
2021/11/17 16:44:55;;;;;;;13.45;9.10;;;13.10;99.90;;;;;;5062079;28;20056;-72
2021/11/17 16:47:59;;;;;;;11.80;8.50;;;12.90;99.90;;;;;;5061198;28;20059;-72
2021/11/17 16:51:03;;;;;;;26.17;16.90;;;12.80;99.90;;;;;;5058124;28;20060;-72
2021/11/17 16:54:07;;;;;;;17.45;11.75;;;12.70;99.90;;;;;;5063297;28;20379;-72
2021/11/17 16:57:11;;;;;;;14.18;10.27;;;12.60;99.90;;;;;;5065898;28;20404;-72
2021/11/17 17:00:22;;;;;;;16.30;9.75;;;12.60;99.90;;;;;;5059489;28;20060;-72
2021/11/17 17:03:30;;;;;;;14.52;8.63;;;12.60;99.90;;;;;;5057755;28;20044;-72
2021/11/17 17:06:36;;;;;;;17.88;8.57;;;12.60;99.90;;;;;;5062557;28;20048;-72
2021/11/17 17:09:42;;;;;;;17.10;9.32;;;12.50;99.90;;;;;;5066970;28;20051;-72
2021/11/17 17:12:48;;;;;;;19.80;11.57;;;12.50;99.90;;;;;;5060076;28;20040;-72
2021/11/17 17:15:52;;;;;;;28.70;17.85;;;12.30;99.90;;;;;;5062457;28;20492;-72
2021/11/17 17:18:56;;;;;;;29.50;15.88;;;12.20;99.90;;;;;;5058750;28;20067;-72
2021/11/17 17:22:01;;;;;;;30.10;18.23;;;12.20;99.90;;;;;;5059910;28;20040;-72
2021/11/17 17:25:07;;;;;;;40.58;25.63;;;12.10;99.90;;;;;;5066735;28;20032;-72
2021/11/17 17:28:16;;;;;;;31.40;18.95;;;12.10;99.90;;;;;;5059475;28;20040;-72
2021/11/17 17:31:22;;;;;;;25.23;14.68;;;12.10;99.90;;;;;;5070585;28;20407;-71
2021/11/17 17:34:27;;;;;;;29.52;17.95;;;12.00;99.90;;;;;;5062593;28;20040;-72
2021/11/17 17:37:32;;;;;;;21.58;13.63;;;12.00;99.90;;;;;;5057191;28;20498;-72
2021/11/17 17:40:37;;;;;;;22.13;13.68;;;11.80;99.90;;;;;;5062242;28;20055;-72
2021/11/17 17:43:41;;;;;;;21.17;14.60;;;11.80;99.90;;;;;;5059276;28;20059;-72
2021/11/17 17:46:45;;;;;;;25.63;15.80;;;11.70;99.90;;;;;;5061857;28;20044;-72
2021/11/17 17:49:50;;;;;;;26.67;17.52;;;11.60;99.90;;;;;;5067285;28;20048;-72
2021/11/17 17:52:54;;;;;;;30.90;19.65;;;11.50;99.90;;;;;;5065933;28;20063;-72
2021/11/17 17:55:58;;;;;;;61.42;36.72;;;11.40;99.90;;;;;;5067841;28;20047;-72
2021/11/17 17:59:03;;;;;;;44.80;28.60;;;11.30;99.90;;;;;;5061775;28;20376;-72
2021/11/17 18:02:10;;;;;;;52.42;34.63;;;11.30;99.90;;;;;;5058608;28;20032;-72
2021/11/17 18:05:15;;;;;;;61.38;39.13;;;11.20;99.90;;;;;;5052828;28;20075;-72
2021/11/17 18:08:22;;;;;;;42.47;28.50;;;11.20;99.90;;;;;;5054503;28;20052;-72
2021/11/17 18:11:27;;;;;;;20.88;13.18;;;11.20;99.90;;;;;;5056206;28;20048;-72
2021/11/17 18:14:31;;;;;;;17.52;11.50;;;11.20;99.90;;;;;;5065828;28;20044;-72
2021/11/17 18:17:36;;;;;;;15.80;10.55;;;11.10;99.90;;;;;;5060067;28;20052;-72
2021/11/17 18:20:40;;;;;;;15.45;9.35;;;11.00;99.90;;;;;;5057589;28;20063;-72
2021/11/17 18:23:45;;;;;;;18.35;8.45;;;11.00;99.90;;;;;;5053514;28;20506;-72
2021/11/17 18:26:58;;;;;;;14.40;8.75;;;10.90;99.90;;;;;;5065567;28;20506;-72
2021/11/17 18:30:10;;;;;;;15.48;8.70;;;10.90;99.90;;;;;;5060804;28;20059;-72
2021/11/17 18:33:15;;;;;;;15.70;10.30;;;10.90;99.90;;;;;;5061925;28;20513;-72
2021/11/17 18:36:22;;;;;;;15.70;11.52;;;10.80;99.90;;;;;;5060639;28;20069;-72
2021/11/17 18:39:26;;;;;;;28.48;13.70;;;10.80;99.90;;;;;;5054719;28;20610;-72
2021/11/17 18:42:33;;;;;;;253.00;85.97;;;10.70;99.90;;;;;;5056540;28;20047;-72
2021/11/17 18:45:40;;;;;;;75.95;37.90;;;10.70;99.90;;;;;;5061896;28;20047;-72
2021/11/17 18:48:44;;;;;;;61.17;31.92;;;10.70;99.90;;;;;;5062897;28;20055;-72
2021/11/17 18:51:48;;;;;;;25.30;16.52;;;10.80;99.90;;;;;;5059916;28;20043;-72
2021/11/17 18:54:52;;;;;;;28.85;16.63;;;10.80;99.90;;;;;;5059840;28;20423;-72
2021/11/17 18:57:56;;;;;;;34.38;20.58;;;10.90;99.90;;;;;;5065686;28;20044;-72
2021/11/17 19:01:20;;;;;;;37.65;22.23;;;10.90;99.90;;;;;;5063473;28;20051;-72